GOAD weather

Goads field
Bradford, Arkansas, United States

Public forecast

Using degrees Fahrenheit for public forecast. Weather courtesy of forecast.io.

Closest aviation weather report (METAR) to Goads field

Closest report is Newport Regional Airport, 17.4 nm (32.2 km) NE. Retrieved UTC (0 seconds ago):

Closest aviation forecast (TAF) to Goads field

Closest forecast is Jonesboro Municipal Airport, 44.6 nm (82.6 km) NE. Retrieved 2020/02/19 06:22 UTC (3 hours ago):

TAF KJBR 190520Z 1906/2006 02010KT P6SM FEW100 FM191100 06012KT P6SM FEW030 BKN100 FM191800 06011G16KT P6SM FEW030 SCT100 FM200500 06008KT P6SM BKN045